Terminal Aerodrome Forecast
Issued by NWS South Bend, IN

Home | Current Version | Previous Version | Text Only | Print | Product List | Glossary Off
Versions: 1 2 3 4 5 6 7 8 9 10 11 12 13

000
FTUS43 KIWX 241700
TAFSBN
TAF
KSBN 241737Z 2418/2518 24006KT P6SM FEW070 BKN120
     FM242300 VRB03KT P6SM BKN060
     FM250300 09007KT P6SM OVC050
     FM250800 09011G17KT P6SM OVC050
     FM251400 09013G21KT 6SM -RA BR OVC035=

USA.gov is the U.S. government's official web portal to all federal, state and local government web resources and services.